Time;durP1;ratioP1;P1;durP2;ratioP2;P2;SDS_P1;SDS_P2;PMS_P1;PMS_P2;Temp;Humidity;BMP_temperature;BMP_pressure;BME280_temperature;BME280_humidity;BME280_pressure;Samples;Min_cycle;Max_cycle;Signal;HPM_P1;HPM_P2
2023/09/11 00:01:33;;;;;;;8.35;5.53;;;27.20;99.90;;;;;;5022159;28;20225;-82
2023/09/11 00:04:00;;;;;;;10.05;5.70;;;27.20;99.90;;;;;;5022452;28;20182;-81
2023/09/11 00:06:25;;;;;;;9.27;5.43;;;27.20;99.90;;;;;;5018164;28;20181;-80
2023/09/11 00:08:52;;;;;;;9.02;5.43;;;27.20;99.90;;;;;;5018804;28;20217;-83
2023/09/11 00:11:18;;;;;;;13.07;5.70;;;27.30;99.90;;;;;;5019253;28;20232;-78
2023/09/11 00:13:43;;;;;;;12.50;5.97;;;27.30;99.90;;;;;;5022714;28;20638;-81
2023/09/11 00:16:09;;;;;;;9.27;5.90;;;27.40;99.90;;;;;;5021882;28;20197;-76
2023/09/11 00:18:35;;;;;;;13.18;5.60;;;27.50;88.80;;;;;;5019934;28;20531;-81
2023/09/11 00:21:01;;;;;;;10.02;6.15;;;27.50;93.80;;;;;;5022441;28;20650;-84
2023/09/11 00:23:27;;;;;;;9.68;5.85;;;27.40;99.90;;;;;;5024176;28;20182;-83
2023/09/11 00:25:52;;;;;;;10.68;5.75;;;27.40;99.90;;;;;;5024470;28;20192;-84
2023/09/11 00:28:20;;;;;;;10.45;6.28;;;27.40;99.90;;;;;;5023983;28;20677;-82
2023/09/11 00:30:49;;;;;;;9.93;5.95;;;27.30;99.90;;;;;;5024463;28;20218;-84
2023/09/11 00:33:16;;;;;;;10.55;6.03;;;27.30;99.90;;;;;;5024063;28;20178;-77
2023/09/11 00:35:45;;;;;;;10.27;6.03;;;27.30;99.90;;;;;;5025126;28;20201;-81
2023/09/11 00:38:13;;;;;;;10.82;5.75;;;27.20;99.90;;;;;;5025056;28;20242;-83
2023/09/11 00:40:40;;;;;;;10.10;5.45;;;27.10;99.90;;;;;;5022434;28;20166;-79
2023/09/11 00:43:05;;;;;;;10.20;5.85;;;27.00;99.90;;;;;;5018097;28;20190;-82
2023/09/11 00:45:31;;;;;;;11.20;5.63;;;26.90;1.00;;;;;;5016386;28;20273;-79
2023/09/11 00:47:59;;;;;;;9.57;5.88;;;26.80;1.00;;;;;;5016941;28;20628;-82
2023/09/11 00:50:25;;;;;;;10.98;6.05;;;26.60;1.00;;;;;;5019791;28;20704;-84
2023/09/11 00:52:51;;;;;;;11.95;6.03;;;26.60;1.00;;;;;;5020732;28;20595;-80
2023/09/11 00:55:19;;;;;;;10.88;5.97;;;26.70;1.00;;;;;;5019497;28;20277;-81
2023/09/11 00:57:44;;;;;;;12.32;5.85;;;26.70;1.00;;;;;;5020502;28;20166;-80
2023/09/11 01:00:12;;;;;;;11.83;6.13;;;26.70;1.00;;;;;;5019447;28;20243;-78
2023/09/11 01:02:38;;;;;;;11.43;6.22;;;26.50;1.00;;;;;;5018566;28;20172;-80
2023/09/11 01:05:07;;;;;;;15.97;10.27;;;26.40;1.00;;;;;;5016506;28;20174;-79
2023/09/11 01:07:34;;;;;;;25.43;21.40;;;26.40;1.00;;;;;;5020423;28;20246;-78
2023/09/11 01:10:00;;;;;;;37.83;31.65;;;26.40;1.00;;;;;;5032537;28;20178;-77
2023/09/11 01:12:26;;;;;;;42.83;37.23;;;26.40;1.00;;;;;;5032995;28;20257;-79
2023/09/11 01:14:51;;;;;;;36.87;27.37;;;26.20;1.00;;;;;;5023452;28;20185;-81
2023/09/11 01:17:37;;;;;;;25.83;14.70;;;26.00;1.00;;;;;;5015833;28;20182;-78
2023/09/11 01:20:46;;;;;;;14.07;8.23;;;25.90;1.00;;;;;;5016878;28;20181;-81
2023/09/11 01:23:12;;;;;;;10.37;7.03;;;25.70;99.90;;;;;;5017201;28;20193;-80
2023/09/11 01:26:02;;;;;;;11.50;6.87;;;25.40;99.90;;;;;;5015720;28;20338;-81
2023/09/11 01:28:34;;;;;;;12.20;6.93;;;25.50;99.90;;;;;;5016440;28;20202;-80
2023/09/11 01:31:01;;;;;;;10.10;6.27;;;25.40;99.90;;;;;;5017175;28;20166;-82
2023/09/11 01:33:26;;;;;;;9.57;6.37;;;25.40;99.90;;;;;;5027346;28;20174;-79
2023/09/11 01:35:52;;;;;;;14.67;6.20;;;25.20;99.90;;;;;;5032472;28;20181;-81
2023/09/11 01:38:19;;;;;;;9.50;6.17;;;25.20;99.90;;;;;;5017403;28;20179;-81
2023/09/11 01:40:47;;;;;;;12.93;6.87;;;25.20;99.90;;;;;;5016816;28;20177;-80
2023/09/11 01:43:15;;;;;;;9.97;6.60;;;25.00;99.90;;;;;;5025764;28;20238;-80
2023/09/11 01:45:41;;;;;;;10.80;6.50;;;25.10;99.90;;;;;;5026435;28;20240;-79
2023/09/11 01:48:08;;;;;;;9.43;6.43;;;25.10;99.90;;;;;;5016496;28;20240;-79
2023/09/11 01:50:36;;;;;;;10.90;6.63;;;25.10;99.90;;;;;;5016286;28;20170;-77
2023/09/11 01:53:04;;;;;;;11.07;6.67;;;25.00;99.90;;;;;;5016688;28;20212;-78
2023/09/11 01:55:32;;;;;;;10.93;6.50;;;24.80;1.00;;;;;;5017716;28;20245;-79
2023/09/11 01:57:58;;;;;;;11.33;6.80;;;24.80;1.00;;;;;;5017291;28;20166;-80
2023/09/11 02:00:24;;;;;;;8.97;6.30;;;24.80;1.00;;;;;;5016452;28;20185;-80
2023/09/11 02:02:54;;;;;;;10.07;6.70;;;24.70;1.00;;;;;;5016495;28;20170;-80
2023/09/11 02:05:20;;;;;;;11.77;6.37;;;24.60;1.00;;;;;;5016286;28;20256;-79
2023/09/11 02:07:46;;;;;;;12.37;6.83;;;24.60;1.00;;;;;;5014798;28;20198;-82
2023/09/11 02:10:12;;;;;;;11.60;6.77;;;24.70;1.00;;;;;;5015684;28;20688;-77
2023/09/11 02:12:37;;;;;;;9.70;6.20;;;24.60;1.00;;;;;;5014801;28;20263;-79
2023/09/11 02:15:05;;;;;;;8.50;7.13;;;24.60;1.00;;;;;;5015397;28;20182;-79
2023/09/11 02:17:30;;;;;;;12.23;6.73;;;24.60;1.00;;;;;;5014297;28;20162;-80
2023/09/11 02:19:56;;;;;;;9.50;6.53;;;24.70;1.00;;;;;;5014908;28;20171;-80
2023/09/11 02:22:22;;;;;;;11.83;6.70;;;24.80;1.00;;;;;;5014453;28;20171;-79
2023/09/11 02:24:47;;;;;;;9.93;7.10;;;24.90;1.00;;;;;;5014268;28;20202;-78
2023/09/11 02:27:13;;;;;;;11.20;7.00;;;24.80;1.00;;;;;;5013993;28;20704;-79
2023/09/11 02:29:38;;;;;;;9.87;6.70;;;24.80;1.00;;;;;;5014497;28;20210;-79
2023/09/11 02:32:04;;;;;;;11.60;6.90;;;24.80;1.00;;;;;;5015198;28;20635;-81
2023/09/11 02:34:30;;;;;;;12.50;7.33;;;24.80;1.00;;;;;;5014720;28;20619;-78
2023/09/11 02:36:56;;;;;;;12.67;7.20;;;24.80;1.00;;;;;;5015055;28;20626;-80
2023/09/11 02:39:21;;;;;;;9.13;7.20;;;24.60;1.00;;;;;;5013822;28;20171;-81
2023/09/11 02:41:47;;;;;;;12.23;6.87;;;24.60;1.00;;;;;;5014083;28;20674;-79
2023/09/11 02:44:12;;;;;;;8.90;6.70;;;24.50;1.00;;;;;;5014290;28;20559;-79
2023/09/11 02:46:38;;;;;;;11.73;6.43;;;24.60;1.00;;;;;;5014107;28;20648;-79
2023/09/11 02:49:04;;;;;;;12.00;6.97;;;24.70;1.00;;;;;;5014267;28;20630;-79
2023/09/11 02:51:30;;;;;;;10.60;6.67;;;24.60;1.00;;;;;;5013906;28;20668;-79
2023/09/11 02:53:56;;;;;;;13.50;6.67;;;24.70;1.00;;;;;;5012909;28;20634;-79
2023/09/11 02:56:22;;;;;;;8.93;6.60;;;24.80;99.90;;;;;;5012881;28;20190;-78
2023/09/11 02:58:48;;;;;;;11.23;7.30;;;24.70;1.00;;;;;;5013942;28;20635;-79
2023/09/11 03:01:14;;;;;;;10.83;6.63;;;24.70;1.00;;;;;;5013517;28;20193;-80
2023/09/11 03:03:39;;;;;;;10.83;6.77;;;24.50;1.00;;;;;;5013847;28;20189;-79
2023/09/11 03:06:05;;;;;;;10.27;6.80;;;24.50;1.00;;;;;;5013265;28;20170;-79
2023/09/11 03:08:31;;;;;;;10.23;6.73;;;24.50;1.00;;;;;;5014159;28;20206;-79
2023/09/11 03:11:10;;;;;;;10.73;6.67;;;24.40;1.00;;;;;;5013128;28;20583;-79
2023/09/11 03:13:36;;;;;;;11.50;7.00;;;24.20;1.00;;;;;;5013030;28;20174;-81
2023/09/11 03:16:13;;;;;;;10.60;6.10;;;24.20;1.00;;;;;;5013878;28;20182;-78
2023/09/11 03:18:40;;;;;;;9.20;6.47;;;24.30;1.00;;;;;;5012774;28;20174;-79
2023/09/11 03:21:07;;;;;;;10.90;6.73;;;24.30;1.00;;;;;;5013474;28;20220;-79
2023/09/11 03:23:33;;;;;;;10.80;6.83;;;24.30;1.00;;;;;;5012107;28;20185;-79
2023/09/11 03:26:01;;;;;;;11.10;6.50;;;24.10;1.00;;;;;;5013832;28;20175;-79
2023/09/11 03:28:28;;;;;;;10.13;6.67;;;24.00;1.00;;;;;;5013683;28;20198;-79
2023/09/11 03:30:54;;;;;;;8.63;6.70;;;24.00;1.00;;;;;;5013571;28;20166;-79
2023/09/11 03:33:19;;;;;;;9.87;6.87;;;24.10;1.00;;;;;;5012822;28;20177;-80
2023/09/11 03:35:48;;;;;;;10.73;6.60;;;24.00;1.00;;;;;;5013919;28;20521;-79
2023/09/11 03:38:15;;;;;;;10.30;7.17;;;24.00;1.00;;;;;;5013886;28;20585;-77
2023/09/11 03:40:42;;;;;;;11.17;6.70;;;23.90;1.00;;;;;;5012897;28;20163;-80
2023/09/11 03:43:08;;;;;;;10.83;7.10;;;23.90;1.00;;;;;;5013492;28;20609;-77
2023/09/11 03:45:34;;;;;;;9.17;6.30;;;23.90;1.00;;;;;;5013592;28;20205;-80
2023/09/11 03:48:00;;;;;;;9.87;6.90;;;23.80;1.00;;;;;;5013658;28;20197;-80
2023/09/11 03:50:26;;;;;;;10.87;7.43;;;23.80;1.00;;;;;;5012059;28;20201;-80
2023/09/11 03:52:51;;;;;;;10.77;7.17;;;23.80;1.00;;;;;;5012860;28;20170;-79
2023/09/11 03:55:17;;;;;;;12.40;7.17;;;23.60;1.00;;;;;;5011612;28;20194;-80
2023/09/11 03:57:43;;;;;;;11.37;7.63;;;23.60;1.00;;;;;;5023452;28;20173;-78
2023/09/11 04:00:10;;;;;;;12.07;7.20;;;23.60;1.00;;;;;;5021697;28;20197;-79
2023/09/11 04:02:37;;;;;;;9.90;7.13;;;23.40;1.00;;;;;;5027542;28;20163;-79
2023/09/11 04:05:05;;;;;;;11.33;7.50;;;23.50;1.00;;;;;;5028680;28;20170;-79
2023/09/11 04:07:32;;;;;;;10.90;7.50;;;23.30;1.00;;;;;;5022946;28;20174;-80
2023/09/11 04:10:01;;;;;;;10.60;7.33;;;23.20;1.00;;;;;;5015418;28;20640;-81
2023/09/11 04:12:28;;;;;;;12.30;8.10;;;23.30;1.00;;;;;;5014501;28;20256;-78
2023/09/11 04:14:57;;;;;;;13.97;8.40;;;23.30;1.00;;;;;;5014058;28;20215;-79
2023/09/11 04:17:23;;;;;;;11.10;8.23;;;23.30;1.00;;;;;;5013647;28;20656;-80
2023/09/11 04:19:48;;;;;;;12.03;8.00;;;23.00;1.00;;;;;;5012402;28;20177;-80
2023/09/11 04:22:14;;;;;;;15.47;8.87;;;22.90;1.00;;;;;;5013031;28;20177;-78
2023/09/11 04:24:40;;;;;;;12.77;8.67;;;22.90;1.00;;;;;;5011852;28;20174;-78
2023/09/11 04:27:05;;;;;;;10.77;8.33;;;23.10;1.00;;;;;;5013354;28;20178;-80
2023/09/11 04:29:31;;;;;;;12.77;8.43;;;23.00;1.00;;;;;;5015137;28;20561;-78
2023/09/11 04:31:57;;;;;;;13.57;8.57;;;22.90;1.00;;;;;;5031850;28;20170;-80
2023/09/11 04:34:23;;;;;;;12.13;8.73;;;22.70;1.00;;;;;;5028593;28;20186;-81
2023/09/11 04:36:48;;;;;;;12.37;8.20;;;22.60;1.00;;;;;;5018678;28;20181;-80
2023/09/11 04:39:14;;;;;;;11.27;8.80;;;22.70;1.00;;;;;;5016625;28;20186;-81
2023/09/11 04:41:40;;;;;;;13.10;9.20;;;22.70;1.00;;;;;;5016815;28;20174;-81
2023/09/11 04:44:06;;;;;;;13.97;9.70;;;22.70;1.00;;;;;;5017501;28;20197;-82
2023/09/11 04:46:32;;;;;;;11.03;9.67;;;22.90;1.00;;;;;;5016530;28;20721;-81
2023/09/11 04:48:58;;;;;;;11.77;9.07;;;22.70;1.00;;;;;;5015698;28;20296;-76
2023/09/11 04:51:24;;;;;;;17.03;9.77;;;22.60;1.00;;;;;;5016128;28;20682;-76
2023/09/11 04:53:51;;;;;;;10.83;9.03;;;22.60;1.00;;;;;;5022703;28;20166;-77
2023/09/11 04:56:17;;;;;;;14.43;9.60;;;22.50;1.00;;;;;;5020936;28;20189;-76
2023/09/11 04:58:42;;;;;;;13.63;9.47;;;22.40;1.00;;;;;;5016660;28;20609;-80
2023/09/11 05:01:08;;;;;;;13.30;10.67;;;22.40;1.00;;;;;;5016408;28;20190;-80
2023/09/11 05:03:34;;;;;;;13.43;9.50;;;22.30;1.00;;;;;;5015050;28;20588;-80
2023/09/11 05:06:00;;;;;;;12.77;9.83;;;22.30;1.00;;;;;;5016008;28;20174;-80
2023/09/11 05:08:25;;;;;;;11.07;9.67;;;22.30;1.00;;;;;;5016944;28;20574;-77
2023/09/11 05:10:51;;;;;;;13.10;9.63;;;22.40;1.00;;;;;;5015713;28;20180;-79
2023/09/11 05:13:18;;;;;;;13.67;9.70;;;22.60;1.00;;;;;;5016389;28;20178;-75
2023/09/11 05:15:43;;;;;;;14.93;10.13;;;22.60;1.00;;;;;;5016040;28;20180;-77
2023/09/11 05:18:11;;;;;;;16.77;11.40;;;22.60;1.00;;;;;;5014542;28;20525;-77
2023/09/11 05:20:37;;;;;;;17.43;11.17;;;22.70;1.00;;;;;;5014619;28;20169;-75
2023/09/11 05:23:03;;;;;;;17.77;10.60;;;22.60;1.00;;;;;;5016173;28;20541;-75
2023/09/11 05:25:28;;;;;;;14.07;10.70;;;22.70;1.00;;;;;;5014167;28;20173;-78
2023/09/11 05:27:54;;;;;;;14.10;10.30;;;22.70;1.00;;;;;;5015449;28;20198;-79
2023/09/11 05:30:20;;;;;;;14.23;10.83;;;22.60;1.00;;;;;;5015976;28;20649;-78
2023/09/11 05:32:48;;;;;;;20.63;12.43;;;22.60;1.00;;;;;;5015401;28;20239;-82
2023/09/11 05:35:13;;;;;;;16.03;10.73;;;22.60;1.00;;;;;;5015852;28;20185;-85
2023/09/11 05:37:39;;;;;;;16.47;11.40;;;22.50;1.00;;;;;;5018794;28;20525;-84
2023/09/11 05:40:07;;;;;;;16.33;11.10;;;22.50;1.00;;;;;;5019098;28;20249;-85
2023/09/11 05:42:53;;;;;;;14.50;10.77;;;22.50;1.00;;;;;;5015286;28;20526;-85
2023/09/11 05:45:18;;;;;;;18.53;12.40;;;22.70;1.00;;;;;;5013891;28;20593;-81
2023/09/11 05:50:55;;;;;;;19.40;12.33;;;22.80;1.00;;;;;;4976434;28;20179;-81
2023/09/11 05:53:41;;;;;;;13.63;12.20;;;22.90;1.00;;;;;;4973794;28;20226;-82
2023/09/11 05:56:07;;;;;;;18.93;13.03;;;22.70;1.00;;;;;;5000511;28;20201;-83
2023/09/11 05:58:32;;;;;;;15.73;13.07;;;22.60;1.00;;;;;;5015602;28;20286;-79
2023/09/11 06:00:58;;;;;;;17.77;12.93;;;22.60;1.00;;;;;;5014930;28;20601;-78
2023/09/11 06:03:24;;;;;;;19.20;12.73;;;22.60;1.00;;;;;;5016343;28;20191;-84
2023/09/11 06:05:50;;;;;;;17.40;13.00;;;22.70;1.00;;;;;;5019155;28;20676;-83
2023/09/11 06:08:16;;;;;;;17.53;11.90;;;22.60;1.00;;;;;;5041061;28;20205;-82
2023/09/11 06:10:41;;;;;;;18.17;12.60;;;22.50;1.00;;;;;;5034420;28;20185;-85
2023/09/11 06:13:07;;;;;;;15.23;12.17;;;22.50;1.00;;;;;;5033087;28;20209;-86
2023/09/11 06:15:33;;;;;;;20.53;13.00;;;22.60;1.00;;;;;;5046265;28;20193;-81
2023/09/11 06:17:59;;;;;;;14.87;12.47;;;22.70;1.00;;;;;;5038657;28;20159;-83
2023/09/11 06:20:25;;;;;;;19.47;12.40;;;22.70;1.00;;;;;;5037245;28;20175;-86
2023/09/11 06:22:51;;;;;;;19.13;12.30;;;22.70;1.00;;;;;;5036622;28;20166;-84
2023/09/11 06:25:17;;;;;;;14.67;12.87;;;22.70;1.00;;;;;;5037228;28;20206;-82
2023/09/11 06:27:42;;;;;;;15.83;12.23;;;22.90;1.00;;;;;;5037989;28;20214;-84
2023/09/11 06:30:10;;;;;;;17.03;12.67;;;23.10;1.00;;;;;;5037013;28;20240;-82
2023/09/11 06:32:37;;;;;;;13.67;12.27;;;23.00;1.00;;;;;;5035527;28;20166;-84
2023/09/11 06:35:05;;;;;;;15.90;12.10;;;22.90;1.00;;;;;;5036045;28;20472;-87
2023/09/11 06:37:30;;;;;;;17.80;12.23;;;23.10;1.00;;;;;;5036945;28;20169;-83
2023/09/11 06:39:56;;;;;;;14.67;11.73;;;23.20;1.00;;;;;;5032733;28;20246;-83
2023/09/11 06:42:25;;;;;;;15.17;11.93;;;23.30;1.00;;;;;;5033913;28;20198;-86
2023/09/11 06:44:53;;;;;;;14.23;11.73;;;23.30;1.00;;;;;;5033127;28;20182;-86
2023/09/11 06:47:19;;;;;;;17.13;12.03;;;23.30;1.00;;;;;;5037689;28;20154;-85
2023/09/11 06:49:45;;;;;;;16.97;11.20;;;23.30;1.00;;;;;;5038473;28;20233;-89
2023/09/11 06:52:11;;;;;;;14.03;11.50;;;23.30;1.00;;;;;;5036187;28;20173;-86
2023/09/11 06:54:36;;;;;;;15.03;11.67;;;23.30;1.00;;;;;;5037681;28;20213;-83
2023/09/11 06:57:02;;;;;;;14.93;10.93;;;23.30;1.00;;;;;;5038278;28;20182;-82
2023/09/11 06:59:28;;;;;;;14.83;12.10;;;23.30;1.00;;;;;;5037550;28;20169;-82
2023/09/11 07:01:54;;;;;;;16.00;11.37;;;23.40;1.00;;;;;;5036747;28;20204;-81
2023/09/11 07:04:19;;;;;;;14.87;11.37;;;23.30;1.00;;;;;;5037647;28;20196;-85
2023/09/11 07:06:46;;;;;;;14.27;11.17;;;23.40;1.00;;;;;;5038219;28;20170;-83
2023/09/11 07:09:12;;;;;;;17.97;11.47;;;23.40;1.00;;;;;;5037397;28;20199;-84
2023/09/11 07:11:37;;;;;;;16.93;12.50;;;23.40;1.00;;;;;;5035434;28;20205;-84
2023/09/11 07:14:05;;;;;;;18.63;12.77;;;23.60;1.00;;;;;;5035978;28;20654;-85
2023/09/11 07:16:31;;;;;;;15.53;11.83;;;23.60;1.00;;;;;;5034682;28;20170;-85
2023/09/11 07:18:57;;;;;;;19.93;12.53;;;23.40;1.00;;;;;;5037919;28;20151;-85
2023/09/11 07:21:23;;;;;;;21.40;14.90;;;23.40;1.00;;;;;;5036233;28;20170;-86
2023/09/11 07:23:48;;;;;;;19.60;13.37;;;23.50;1.00;;;;;;5037230;28;20204;-85
2023/09/11 07:26:14;;;;;;;16.77;11.83;;;23.60;1.00;;;;;;5036669;28;20170;-86
2023/09/11 07:29:02;;;;;;;16.03;11.03;;;23.80;1.00;;;;;;5037079;28;20593;-87
2023/09/11 07:31:32;;;;;;;12.27;10.73;;;24.00;1.00;;;;;;5036411;28;20154;-84
2023/09/11 07:33:59;;;;;;;15.37;12.03;;;24.00;1.00;;;;;;5036898;28;20175;-82
2023/09/11 07:36:27;;;;;;;14.37;11.90;;;24.00;1.00;;;;;;5033016;28;20163;-82
2023/09/11 07:38:52;;;;;;;18.00;11.60;;;24.00;1.00;;;;;;5035382;28;20174;-83
2023/09/11 07:41:19;;;;;;;16.93;10.83;;;24.10;1.00;;;;;;5035680;28;20181;-85
2023/09/11 07:43:49;;;;;;;14.90;11.00;;;24.00;1.00;;;;;;5035432;28;20170;-87
2023/09/11 07:46:19;;;;;;;14.80;11.27;;;24.10;1.00;;;;;;5028280;28;20177;-87
2023/09/11 07:48:45;;;;;;;14.53;10.70;;;24.30;1.00;;;;;;5032225;28;20206;-86
2023/09/11 07:51:12;;;;;;;17.40;11.60;;;24.30;1.00;;;;;;5038402;28;20151;-87
2023/09/11 07:53:38;;;;;;;13.40;10.73;;;24.40;1.00;;;;;;5037417;28;20163;-84
2023/09/11 07:56:06;;;;;;;13.37;10.10;;;24.40;1.00;;;;;;5034360;28;20197;-87
2023/09/11 07:58:35;;;;;;;18.10;11.90;;;24.50;1.00;;;;;;5034780;28;20166;-86
2023/09/11 08:01:01;;;;;;;14.77;10.70;;;24.60;1.00;;;;;;5028804;28;20235;-83
2023/09/11 08:03:27;;;;;;;15.00;10.27;;;24.60;1.00;;;;;;5024665;28;20174;-81
2023/09/11 08:05:55;;;;;;;13.73;10.87;;;24.70;1.00;;;;;;5015940;28;20194;-86
2023/09/11 08:08:21;;;;;;;15.20;11.10;;;24.70;1.00;;;;;;5012605;28;20237;-87
2023/09/11 08:10:46;;;;;;;13.57;10.17;;;24.80;1.00;;;;;;5019518;28;20182;-82
2023/09/11 08:13:13;;;;;;;15.63;9.97;;;24.90;1.00;;;;;;5016387;28;20579;-82
2023/09/11 08:15:39;;;;;;;16.93;9.83;;;25.00;1.00;;;;;;5017267;28;20272;-83
2023/09/11 08:18:04;;;;;;;14.57;10.00;;;25.10;1.00;;;;;;5015273;28;20630;-83
2023/09/11 08:20:30;;;;;;;13.63;9.63;;;25.30;1.00;;;;;;5015657;28;20191;-83
2023/09/11 08:22:58;;;;;;;12.17;9.73;;;25.40;1.00;;;;;;5014671;28;20236;-84
2023/09/11 08:25:24;;;;;;;15.53;9.03;;;25.50;1.00;;;;;;5015138;28;20261;-83
2023/09/11 08:27:49;;;;;;;13.37;10.63;;;25.70;1.00;;;;;;5015577;28;20194;-83
2023/09/11 08:30:16;;;;;;;11.53;7.33;;;25.80;1.00;;;;;;5014036;28;20260;-83
2023/09/11 08:32:42;;;;;;;14.70;11.30;;;25.90;99.90;;;;;;5012219;28;20228;-83
2023/09/11 08:35:08;;;;;;;15.63;9.00;;;26.00;99.90;;;;;;5012647;28;20650;-82
2023/09/11 08:37:33;;;;;;;9.73;7.40;;;26.00;99.90;;;;;;5014313;28;20533;-84
2023/09/11 08:39:59;;;;;;;9.53;6.00;;;26.00;99.90;;;;;;5013626;28;20184;-82
2023/09/11 08:42:25;;;;;;;9.07;5.10;;;26.00;99.90;;;;;;5013917;28;20202;-82
2023/09/11 08:44:51;;;;;;;8.93;5.77;;;25.80;99.90;;;;;;5014193;28;20712;-83
2023/09/11 08:47:26;;;;;;;9.77;5.67;;;25.80;99.90;;;;;;5014785;28;20209;-82
2023/09/11 08:49:57;;;;;;;7.67;4.77;;;25.80;99.90;;;;;;5015889;28;20217;-83
2023/09/11 08:52:24;;;;;;;6.70;4.50;;;25.80;99.90;;;;;;5015752;28;20170;-84
2023/09/11 08:54:53;;;;;;;8.07;4.20;;;25.80;99.90;;;;;;5014360;28;20269;-82
2023/09/11 08:57:21;;;;;;;7.67;4.57;;;25.80;94.20;;;;;;5014072;28;20190;-83
2023/09/11 08:59:51;;;;;;;9.90;4.93;;;25.90;99.90;;;;;;5015351;28;20201;-82
2023/09/11 09:02:19;;;;;;;6.60;4.10;;;26.10;99.90;;;;;;5013159;28;20181;-86
2023/09/11 09:04:47;;;;;;;7.70;4.13;;;26.10;27.80;;;;;;5013448;28;20181;-87
2023/09/11 09:07:17;;;;;;;6.23;4.07;;;26.00;1.00;;;;;;5014281;28;20178;-86
2023/09/11 09:09:43;;;;;;;7.40;3.97;;;26.00;1.00;;;;;;5013631;28;20213;-87
2023/09/11 09:12:10;;;;;;;7.13;4.40;;;25.90;23.50;;;;;;5012916;28;20174;-87
2023/09/11 09:14:39;;;;;;;10.93;4.33;;;26.10;32.10;;;;;;5013326;28;20193;-87
2023/09/11 09:17:06;;;;;;;7.23;5.10;;;26.20;38.70;;;;;;5017598;28;20254;-85
2023/09/11 09:19:33;;;;;;;12.83;6.43;;;26.30;31.80;;;;;;5018540;28;20602;-87
2023/09/11 09:22:09;;;;;;;9.43;4.60;;;26.30;1.00;;;;;;5019286;28;20163;-84
2023/09/11 09:24:46;;;;;;;8.57;4.53;;;26.30;1.00;;;;;;5016634;28;20202;-83
2023/09/11 09:27:12;;;;;;;11.43;4.93;;;26.40;1.00;;;;;;5021027;28;20529;-83
2023/09/11 09:29:39;;;;;;;8.50;4.57;;;26.40;1.00;;;;;;5018684;28;20210;-85
2023/09/11 09:32:06;;;;;;;7.57;5.17;;;26.40;1.00;;;;;;5019484;28;20549;-86
2023/09/11 09:34:33;;;;;;;8.87;5.00;;;26.50;10.40;;;;;;5018631;28;20174;-89
2023/09/11 09:37:00;;;;;;;9.30;5.43;;;26.50;5.30;;;;;;5022951;28;20657;-86
2023/09/11 09:39:28;;;;;;;10.03;5.60;;;26.60;1.00;;;;;;5021784;28;20643;-87
2023/09/11 09:42:01;;;;;;;14.23;7.03;;;26.70;1.00;;;;;;5022466;28;20213;-88
2023/09/11 09:44:28;;;;;;;12.77;6.67;;;26.80;2.00;;;;;;5019490;28;20170;-87
2023/09/11 09:46:54;;;;;;;8.23;5.27;;;26.90;1.00;;;;;;5020826;28;20638;-86
2023/09/11 09:49:23;;;;;;;10.77;5.10;;;26.80;1.00;;;;;;5018996;28;20218;-87
2023/09/11 09:51:49;;;;;;;9.53;5.47;;;26.80;1.00;;;;;;5019564;28;20182;-86
2023/09/11 09:54:15;;;;;;;9.20;5.53;;;26.70;1.00;;;;;;5019144;28;20226;-86
2023/09/11 09:56:41;;;;;;;8.07;5.40;;;26.70;1.00;;;;;;5020122;28;21025;-86
2023/09/11 09:59:07;;;;;;;8.00;5.40;;;26.70;1.00;;;;;;5019382;28;20623;-85
2023/09/11 10:01:44;;;;;;;11.20;5.53;;;26.90;1.00;;;;;;5020263;28;20194;-85
2023/09/11 10:04:17;;;;;;;7.83;4.77;;;26.90;1.00;;;;;;5018593;28;20182;-86
2023/09/11 10:06:51;;;;;;;9.20;5.78;;;27.20;1.00;;;;;;5018545;28;20185;-84
2023/09/11 10:09:20;;;;;;;7.38;5.28;;;27.30;1.00;;;;;;5019894;28;20228;-87
2023/09/11 10:11:45;;;;;;;10.23;5.50;;;27.30;1.00;;;;;;5022318;28;20202;-87
2023/09/11 10:14:11;;;;;;;8.38;4.68;;;27.40;1.00;;;;;;5023164;28;20177;-85
2023/09/11 10:16:37;;;;;;;10.70;6.05;;;27.50;1.00;;;;;;5023321;28;20165;-87
2023/09/11 10:19:04;;;;;;;10.27;5.80;;;27.60;1.00;;;;;;5019348;28;20257;-87
2023/09/11 10:21:31;;;;;;;8.43;4.88;;;27.60;1.00;;;;;;5017752;28;20174;-85
2023/09/11 10:23:57;;;;;;;8.73;5.20;;;27.50;1.00;;;;;;5020724;28;20169;-86
2023/09/11 10:26:40;;;;;;;10.60;5.30;;;27.60;1.00;;;;;;5016898;28;20182;-86
2023/09/11 10:29:11;;;;;;;9.45;4.60;;;27.80;1.00;;;;;;5017370;28;20689;-86
2023/09/11 10:31:58;;;;;;;8.35;4.65;;;27.90;99.90;;;;;;5016385;28;20167;-86
2023/09/11 10:34:25;;;;;;;9.70;4.80;;;27.70;99.90;;;;;;5017479;28;20187;-84
2023/09/11 10:36:57;;;;;;;7.38;5.07;;;27.70;99.90;;;;;;5021174;28;20551;-86
2023/09/11 10:39:23;;;;;;;7.85;4.65;;;27.70;1.00;;;;;;5026966;28;20181;-86
2023/09/11 10:41:49;;;;;;;10.32;4.32;;;27.80;99.90;;;;;;5017342;28;20181;-86
2023/09/11 10:44:16;;;;;;;5.23;3.60;;;27.90;99.90;;;;;;5017582;28;20175;-86
2023/09/11 10:46:52;;;;;;;7.88;4.18;;;28.00;99.90;;;;;;5025780;28;20178;-85
2023/09/11 10:49:20;;;;;;;8.18;3.92;;;28.00;99.90;;;;;;5026395;28;20364;-85
2023/09/11 10:51:47;;;;;;;7.32;3.35;;;28.10;99.90;;;;;;5019229;28;20753;-87
2023/09/11 10:54:16;;;;;;;10.13;4.55;;;28.10;1.00;;;;;;5019358;28;20250;-87
2023/09/11 10:56:52;;;;;;;5.88;3.75;;;28.20;1.00;;;;;;5019984;28;20182;-86
2023/09/11 10:59:22;;;;;;;9.18;4.25;;;28.10;25.70;;;;;;5020348;28;20170;-87
2023/09/11 11:01:48;;;;;;;5.65;3.70;;;28.10;99.90;;;;;;5018581;28;20208;-87
2023/09/11 11:04:15;;;;;;;4.63;3.45;;;28.10;99.90;;;;;;5019502;28;20544;-87
2023/09/11 11:06:46;;;;;;;7.25;3.53;;;28.10;1.00;;;;;;5020333;28;20197;-88
2023/09/11 11:09:33;;;;;;;7.95;3.63;;;28.20;90.20;;;;;;5030222;28;20217;-84
2023/09/11 11:12:06;;;;;;;10.30;4.90;;;28.20;99.90;;;;;;5025262;28;20177;-88
2023/09/11 11:14:32;;;;;;;6.43;3.40;;;28.30;99.90;;;;;;5021352;28;20171;-87
2023/09/11 11:17:13;;;;;;;7.18;3.63;;;28.30;99.90;;;;;;5017246;28;20174;-88
2023/09/11 11:19:58;;;;;;;7.63;3.47;;;28.30;11.00;;;;;;5015948;28;20184;-87
2023/09/11 11:22:32;;;;;;;4.90;3.55;;;28.30;1.00;;;;;;5017843;28;20213;-87
2023/09/11 11:25:00;;;;;;;8.10;3.63;;;28.40;1.00;;;;;;5018273;28;20179;-88
2023/09/11 11:27:26;;;;;;;5.97;3.58;;;28.40;99.90;;;;;;5020436;28;20201;-85
2023/09/11 11:29:56;;;;;;;6.57;3.67;;;28.50;99.90;;;;;;5023789;28;20210;-85
2023/09/11 11:32:25;;;;;;;5.78;3.03;;;28.60;99.90;;;;;;5028516;28;20235;-84
2023/09/11 11:34:51;;;;;;;5.35;3.38;;;28.70;99.90;;;;;;5028550;28;20550;-86
2023/09/11 11:37:20;;;;;;;4.97;3.22;;;28.90;1.00;;;;;;5017125;28;20174;-86
2023/09/11 11:39:49;;;;;;;9.88;3.65;;;29.10;1.00;;;;;;5015899;28;20178;-82
2023/09/11 11:42:16;;;;;;;6.13;3.30;;;29.10;1.00;;;;;;5019204;28;20619;-85
2023/09/11 11:44:42;;;;;;;4.82;3.25;;;29.10;1.00;;;;;;5019889;28;20174;-83
2023/09/11 11:47:21;;;;;;;8.00;6.90;;;29.00;99.90;;;;;;5027771;28;20170;-85
2023/09/11 11:49:49;;;;;;;7.57;3.25;;;29.10;99.90;;;;;;5029343;28;20212;-85
2023/09/11 11:52:15;;;;;;;7.88;3.50;;;29.10;1.00;;;;;;5021807;28;20163;-84
2023/09/11 11:54:44;;;;;;;6.88;4.40;;;29.00;1.00;;;;;;5018973;28;20193;-86
2023/09/11 11:57:09;;;;;;;6.72;3.25;;;28.90;99.90;;;;;;5016540;28;20159;-84
2023/09/11 11:59:40;;;;;;;6.55;3.50;;;28.80;1.00;;;;;;5015051;28;20289;-86
2023/09/11 12:02:19;;;;;;;9.73;4.45;;;28.80;99.90;;;;;;5017197;28;20533;-85
2023/09/11 12:04:45;;;;;;;6.00;3.88;;;28.80;99.90;;;;;;5017902;28;20269;-85
2023/09/11 12:07:11;;;;;;;7.07;3.60;;;28.80;1.00;;;;;;5015740;28;20214;-83
2023/09/11 12:09:39;;;;;;;5.85;3.08;;;28.70;1.00;;;;;;5017149;28;20202;-84
2023/09/11 12:12:07;;;;;;;8.10;4.45;;;28.60;1.00;;;;;;5016402;28;20170;-86
2023/09/11 12:14:36;;;;;;;11.38;6.68;;;28.60;1.00;;;;;;5015678;28;20545;-85
2023/09/11 12:17:03;;;;;;;6.47;3.63;;;28.70;1.00;;;;;;5015278;28;20197;-84
2023/09/11 12:19:30;;;;;;;6.75;3.58;;;28.80;1.00;;;;;;5018955;28;20169;-85
2023/09/11 12:21:56;;;;;;;4.18;3.35;;;28.90;1.00;;;;;;5019468;28;20166;-86
2023/09/11 12:24:22;;;;;;;8.45;3.65;;;28.80;99.90;;;;;;5020689;28;20170;-85
2023/09/11 12:26:48;;;;;;;6.28;3.55;;;28.70;1.00;;;;;;5020468;28;20265;-86
2023/09/11 12:29:15;;;;;;;6.43;3.42;;;28.80;64.70;;;;;;5015494;28;20725;-87
2023/09/11 12:31:41;;;;;;;6.63;3.88;;;28.60;99.90;;;;;;5014103;28;20170;-85
2023/09/11 12:34:06;;;;;;;8.25;4.00;;;28.80;1.00;;;;;;5015460;28;20178;-86
2023/09/11 12:36:33;;;;;;;6.95;3.90;;;28.80;99.90;;;;;;5020800;28;20182;-86
2023/09/11 12:38:59;;;;;;;5.80;3.47;;;28.90;99.90;;;;;;5019088;28;20174;-87
2023/09/11 12:41:26;;;;;;;6.40;3.47;;;29.10;1.00;;;;;;5016087;28;20167;-86
2023/09/11 12:43:53;;;;;;;5.00;3.75;;;29.10;1.00;;;;;;5015341;28;20186;-89
2023/09/11 12:46:21;;;;;;;6.43;3.38;;;29.10;99.90;;;;;;5015954;28;20206;-82
2023/09/11 12:48:48;;;;;;;5.32;3.40;;;29.00;1.00;;;;;;5016947;28;20273;-82
2023/09/11 12:51:17;;;;;;;6.35;3.55;;;28.90;1.00;;;;;;5013711;28;20324;-87